Terminal Aerodrome Forecast
Issued by NWS Charleston, SC

Home | Current Version | Previous Version | Text Only | Print | Product List | Glossary On
Versions: 1 2 3 4 5 6 7 8 9 10 11 12 13 14 15 16 17 18 19
000
FTUS42 KCHS 150300 AAB
TAFSAV
TAF AMD
KSAV 150327Z 1503/1524 VRB05KT P6SM VCTS SCT015 SCT025CB OVC050
      TEMPO 1503/1506 6SM -TSRA SCT008 BKN020CB
     FM150600 VRB04KT P6SM VCSH SCT008 BKN015
      TEMPO 1506/1509 BKN008
     FM150900 VRB03KT P6SM OVC008
     FM151600 VRB05KT 6SM -SHRA VCTS SCT015 BKN030CB OVC050=

USA.gov is the U.S. government's official web portal to all federal, state and local government web resources and services.